sensor_id;sensor_type;location;lat;lon;timestamp;P1;durP1;ratioP1;P2;durP2;ratioP2
35921;SDS011;22013;48.428;11.974;2022-07-22T00:01:19;19.67;;;15.10;;
35921;SDS011;22013;48.428;11.974;2022-07-22T00:03:55;17.23;;;14.50;;
35921;SDS011;22013;48.428;11.974;2022-07-22T00:06:31;15.70;;;13.17;;
35921;SDS011;22013;48.428;11.974;2022-07-22T00:09:07;16.73;;;14.53;;
35921;SDS011;22013;48.428;11.974;2022-07-22T00:11:42;19.03;;;15.03;;
35921;SDS011;22013;48.428;11.974;2022-07-22T00:14:20;19.57;;;15.23;;
35921;SDS011;22013;48.428;11.974;2022-07-22T00:16:56;17.33;;;14.70;;
35921;SDS011;22013;48.428;11.974;2022-07-22T00:19:32;23.43;;;14.67;;
35921;SDS011;22013;48.428;11.974;2022-07-22T00:22:08;19.90;;;15.20;;
35921;SDS011;22013;48.428;11.974;2022-07-22T00:24:44;20.30;;;14.53;;
35921;SDS011;22013;48.428;11.974;2022-07-22T00:27:20;19.90;;;12.87;;
35921;SDS011;22013;48.428;11.974;2022-07-22T00:29:58;18.10;;;14.00;;
35921;SDS011;22013;48.428;11.974;2022-07-22T00:32:34;16.77;;;14.77;;
35921;SDS011;22013;48.428;11.974;2022-07-22T00:35:10;15.37;;;13.40;;
35921;SDS011;22013;48.428;11.974;2022-07-22T00:37:45;15.13;;;12.50;;
35921;SDS011;22013;48.428;11.974;2022-07-22T00:40:21;18.33;;;13.10;;
35921;SDS011;22013;48.428;11.974;2022-07-22T00:42:57;15.30;;;12.90;;
35921;SDS011;22013;48.428;11.974;2022-07-22T00:45:36;16.53;;;13.60;;
35921;SDS011;22013;48.428;11.974;2022-07-22T00:48:12;17.77;;;14.27;;
35921;SDS011;22013;48.428;11.974;2022-07-22T00:50:48;19.57;;;14.87;;
35921;SDS011;22013;48.428;11.974;2022-07-22T00:53:23;16.03;;;13.27;;
35921;SDS011;22013;48.428;11.974;2022-07-22T00:55:59;16.47;;;13.60;;
35921;SDS011;22013;48.428;11.974;2022-07-22T00:58:35;17.07;;;13.63;;
35921;SDS011;22013;48.428;11.974;2022-07-22T01:01:14;13.83;;;11.73;;
35921;SDS011;22013;48.428;11.974;2022-07-22T01:03:49;16.77;;;12.10;;
35921;SDS011;22013;48.428;11.974;2022-07-22T01:06:31;18.83;;;13.73;;
35921;SDS011;22013;48.428;11.974;2022-07-22T01:09:07;16.57;;;13.03;;
35921;SDS011;22013;48.428;11.974;2022-07-22T01:11:43;15.13;;;11.63;;
35921;SDS011;22013;48.428;11.974;2022-07-22T01:14:19;17.53;;;13.87;;
35921;SDS011;22013;48.428;11.974;2022-07-22T01:16:57;14.63;;;11.80;;
35921;SDS011;22013;48.428;11.974;2022-07-22T01:19:34;12.30;;;10.90;;
35921;SDS011;22013;48.428;11.974;2022-07-22T01:22:14;14.50;;;12.57;;
35921;SDS011;22013;48.428;11.974;2022-07-22T01:24:50;17.10;;;12.63;;
35921;SDS011;22013;48.428;11.974;2022-07-22T01:27:25;15.67;;;12.87;;
35921;SDS011;22013;48.428;11.974;2022-07-22T01:30:02;15.90;;;11.60;;
35921;SDS011;22013;48.428;11.974;2022-07-22T01:32:39;13.97;;;12.23;;
35921;SDS011;22013;48.428;11.974;2022-07-22T01:35:15;17.90;;;12.23;;
35921;SDS011;22013;48.428;11.974;2022-07-22T01:37:53;14.47;;;10.77;;
35921;SDS011;22013;48.428;11.974;2022-07-22T01:40:29;13.13;;;10.67;;
35921;SDS011;22013;48.428;11.974;2022-07-22T01:43:05;20.07;;;10.50;;
35921;SDS011;22013;48.428;11.974;2022-07-22T01:45:41;20.27;;;10.63;;
35921;SDS011;22013;48.428;11.974;2022-07-22T01:48:16;15.23;;;11.70;;
35921;SDS011;22013;48.428;11.974;2022-07-22T01:50:52;12.43;;;11.10;;
35921;SDS011;22013;48.428;11.974;2022-07-22T01:53:31;16.60;;;11.27;;
35921;SDS011;22013;48.428;11.974;2022-07-22T01:56:07;15.47;;;10.87;;
35921;SDS011;22013;48.428;11.974;2022-07-22T01:58:51;12.57;;;10.90;;
35921;SDS011;22013;48.428;11.974;2022-07-22T02:01:30;13.43;;;11.53;;
35921;SDS011;22013;48.428;11.974;2022-07-22T02:04:06;15.10;;;12.73;;
35921;SDS011;22013;48.428;11.974;2022-07-22T02:06:43;13.20;;;11.17;;
35921;SDS011;22013;48.428;11.974;2022-07-22T02:09:22;15.47;;;12.47;;
35921;SDS011;22013;48.428;11.974;2022-07-22T02:12:01;16.67;;;11.77;;
35921;SDS011;22013;48.428;11.974;2022-07-22T02:14:44;14.03;;;12.10;;
35921;SDS011;22013;48.428;11.974;2022-07-22T02:17:20;16.20;;;12.50;;
35921;SDS011;22013;48.428;11.974;2022-07-22T02:19:55;14.23;;;12.37;;
35921;SDS011;22013;48.428;11.974;2022-07-22T02:22:31;17.00;;;11.60;;
35921;SDS011;22013;48.428;11.974;2022-07-22T02:25:10;14.97;;;11.27;;
35921;SDS011;22013;48.428;11.974;2022-07-22T02:27:46;12.23;;;10.73;;
35921;SDS011;22013;48.428;11.974;2022-07-22T02:30:21;13.07;;;11.30;;
35921;SDS011;22013;48.428;11.974;2022-07-22T02:32:57;17.23;;;12.37;;
35921;SDS011;22013;48.428;11.974;2022-07-22T02:35:33;15.73;;;12.50;;
35921;SDS011;22013;48.428;11.974;2022-07-22T02:38:10;14.53;;;11.90;;
35921;SDS011;22013;48.428;11.974;2022-07-22T02:40:49;16.23;;;12.33;;
35921;SDS011;22013;48.428;11.974;2022-07-22T02:43:25;18.77;;;11.83;;
35921;SDS011;22013;48.428;11.974;2022-07-22T02:46:01;12.47;;;11.17;;
35921;SDS011;22013;48.428;11.974;2022-07-22T02:48:37;12.37;;;10.60;;
35921;SDS011;22013;48.428;11.974;2022-07-22T02:51:16;14.70;;;11.77;;
35921;SDS011;22013;48.428;11.974;2022-07-22T02:53:52;13.37;;;10.67;;
35921;SDS011;22013;48.428;11.974;2022-07-22T02:56:30;13.87;;;11.23;;
35921;SDS011;22013;48.428;11.974;2022-07-22T02:59:06;14.40;;;12.63;;
35921;SDS011;22013;48.428;11.974;2022-07-22T03:01:42;12.00;;;10.47;;
35921;SDS011;22013;48.428;11.974;2022-07-22T03:04:18;14.63;;;10.93;;
35921;SDS011;22013;48.428;11.974;2022-07-22T03:06:54;11.67;;;8.40;;
35921;SDS011;22013;48.428;11.974;2022-07-22T03:09:30;18.37;;;9.70;;
35921;SDS011;22013;48.428;11.974;2022-07-22T03:12:09;11.57;;;10.13;;
35921;SDS011;22013;48.428;11.974;2022-07-22T03:14:45;14.77;;;12.17;;
35921;SDS011;22013;48.428;11.974;2022-07-22T03:17:20;15.10;;;10.87;;
35921;SDS011;22013;48.428;11.974;2022-07-22T03:19:56;13.87;;;10.50;;
35921;SDS011;22013;48.428;11.974;2022-07-22T03:22:32;13.03;;;11.40;;
35921;SDS011;22013;48.428;11.974;2022-07-22T03:25:09;14.27;;;10.90;;
35921;SDS011;22013;48.428;11.974;2022-07-22T03:27:47;12.20;;;10.73;;
35921;SDS011;22013;48.428;11.974;2022-07-22T03:30:23;12.50;;;10.40;;
35921;SDS011;22013;48.428;11.974;2022-07-22T03:32:59;14.73;;;12.33;;
35921;SDS011;22013;48.428;11.974;2022-07-22T03:35:39;12.63;;;11.37;;
35921;SDS011;22013;48.428;11.974;2022-07-22T03:38:15;15.03;;;11.63;;
35921;SDS011;22013;48.428;11.974;2022-07-22T03:40:52;15.07;;;11.90;;
35921;SDS011;22013;48.428;11.974;2022-07-22T03:43:30;14.97;;;10.47;;
35921;SDS011;22013;48.428;11.974;2022-07-22T03:46:07;13.70;;;11.70;;
35921;SDS011;22013;48.428;11.974;2022-07-22T03:48:44;14.00;;;11.27;;
35921;SDS011;22013;48.428;11.974;2022-07-22T03:51:20;11.77;;;10.57;;
35921;SDS011;22013;48.428;11.974;2022-07-22T03:54:01;13.77;;;10.23;;
35921;SDS011;22013;48.428;11.974;2022-07-22T03:56:39;11.77;;;9.90;;
35921;SDS011;22013;48.428;11.974;2022-07-22T03:59:18;11.00;;;9.63;;
35921;SDS011;22013;48.428;11.974;2022-07-22T04:01:54;11.70;;;10.50;;
35921;SDS011;22013;48.428;11.974;2022-07-22T04:04:30;12.77;;;11.37;;
35921;SDS011;22013;48.428;11.974;2022-07-22T04:07:06;13.03;;;11.23;;
35921;SDS011;22013;48.428;11.974;2022-07-22T04:09:41;13.17;;;11.70;;
35921;SDS011;22013;48.428;11.974;2022-07-22T04:12:18;13.33;;;11.57;;
35921;SDS011;22013;48.428;11.974;2022-07-22T04:15:14;14.70;;;11.43;;
35921;SDS011;22013;48.428;11.974;2022-07-22T04:17:49;13.57;;;11.17;;
35921;SDS011;22013;48.428;11.974;2022-07-22T04:20:25;16.17;;;12.33;;
35921;SDS011;22013;48.428;11.974;2022-07-22T04:23:34;13.90;;;10.93;;
35921;SDS011;22013;48.428;11.974;2022-07-22T04:26:17;13.07;;;11.50;;
35921;SDS011;22013;48.428;11.974;2022-07-22T04:28:52;17.03;;;13.30;;
35921;SDS011;22013;48.428;11.974;2022-07-22T04:31:32;15.67;;;12.50;;
35921;SDS011;22013;48.428;11.974;2022-07-22T04:34:13;18.97;;;11.93;;
35921;SDS011;22013;48.428;11.974;2022-07-22T04:36:51;12.67;;;10.87;;
35921;SDS011;22013;48.428;11.974;2022-07-22T04:39:26;13.40;;;10.77;;
35921;SDS011;22013;48.428;11.974;2022-07-22T04:42:03;14.30;;;11.33;;
35921;SDS011;22013;48.428;11.974;2022-07-22T04:44:39;11.87;;;10.07;;
35921;SDS011;22013;48.428;11.974;2022-07-22T04:47:19;12.00;;;10.70;;
35921;SDS011;22013;48.428;11.974;2022-07-22T04:49:54;14.97;;;11.50;;
35921;SDS011;22013;48.428;11.974;2022-07-22T04:52:30;12.73;;;10.43;;
35921;SDS011;22013;48.428;11.974;2022-07-22T04:55:06;14.90;;;12.70;;
35921;SDS011;22013;48.428;11.974;2022-07-22T04:57:44;12.77;;;10.53;;
35921;SDS011;22013;48.428;11.974;2022-07-22T05:00:20;14.83;;;11.27;;
35921;SDS011;22013;48.428;11.974;2022-07-22T05:03:01;13.07;;;10.13;;
35921;SDS011;22013;48.428;11.974;2022-07-22T05:05:37;16.07;;;10.93;;
35921;SDS011;22013;48.428;11.974;2022-07-22T05:08:15;12.33;;;10.87;;
35921;SDS011;22013;48.428;11.974;2022-07-22T05:10:53;16.57;;;12.30;;
35921;SDS011;22013;48.428;11.974;2022-07-22T05:13:29;12.70;;;11.30;;
35921;SDS011;22013;48.428;11.974;2022-07-22T05:16:05;16.40;;;11.13;;
35921;SDS011;22013;48.428;11.974;2022-07-22T05:18:46;18.17;;;12.77;;
35921;SDS011;22013;48.428;11.974;2022-07-22T05:21:22;19.10;;;13.37;;
35921;SDS011;22013;48.428;11.974;2022-07-22T05:23:58;25.13;;;12.83;;
35921;SDS011;22013;48.428;11.974;2022-07-22T05:26:35;19.50;;;12.10;;
35921;SDS011;22013;48.428;11.974;2022-07-22T05:29:11;20.50;;;12.30;;
35921;SDS011;22013;48.428;11.974;2022-07-22T05:31:48;18.77;;;12.53;;
35921;SDS011;22013;48.428;11.974;2022-07-22T05:34:27;29.90;;;14.87;;
35921;SDS011;22013;48.428;11.974;2022-07-22T05:37:02;19.47;;;13.03;;
35921;SDS011;22013;48.428;11.974;2022-07-22T05:39:38;21.77;;;14.30;;
35921;SDS011;22013;48.428;11.974;2022-07-22T05:42:14;20.47;;;13.87;;
35921;SDS011;22013;48.428;11.974;2022-07-22T05:44:49;24.73;;;13.97;;
35921;SDS011;22013;48.428;11.974;2022-07-22T05:47:25;18.50;;;12.97;;
35921;SDS011;22013;48.428;11.974;2022-07-22T05:50:04;16.57;;;12.57;;
35921;SDS011;22013;48.428;11.974;2022-07-22T05:52:42;17.93;;;12.30;;
35921;SDS011;22013;48.428;11.974;2022-07-22T05:55:19;16.53;;;12.97;;
35921;SDS011;22013;48.428;11.974;2022-07-22T05:57:56;13.87;;;11.97;;
35921;SDS011;22013;48.428;11.974;2022-07-22T06:00:32;19.07;;;12.70;;
35921;SDS011;22013;48.428;11.974;2022-07-22T06:03:08;17.27;;;12.30;;
35921;SDS011;22013;48.428;11.974;2022-07-22T06:05:52;16.60;;;11.77;;
35921;SDS011;22013;48.428;11.974;2022-07-22T06:08:27;17.20;;;12.90;;
35921;SDS011;22013;48.428;11.974;2022-07-22T06:11:03;15.57;;;12.73;;
35921;SDS011;22013;48.428;11.974;2022-07-22T06:13:39;13.87;;;11.30;;
35921;SDS011;22013;48.428;11.974;2022-07-22T06:16:14;16.23;;;11.70;;
35921;SDS011;22013;48.428;11.974;2022-07-22T06:18:54;15.50;;;11.93;;
35921;SDS011;22013;48.428;11.974;2022-07-22T06:21:34;27.03;;;12.73;;
35921;SDS011;22013;48.428;11.974;2022-07-22T06:24:18;19.03;;;12.20;;
35921;SDS011;22013;48.428;11.974;2022-07-22T06:26:57;12.50;;;11.20;;
35921;SDS011;22013;48.428;11.974;2022-07-22T06:29:34;14.63;;;11.20;;
35921;SDS011;22013;48.428;11.974;2022-07-22T06:32:09;15.53;;;11.63;;
35921;SDS011;22013;48.428;11.974;2022-07-22T06:34:47;19.27;;;11.47;;
35921;SDS011;22013;48.428;11.974;2022-07-22T06:37:25;15.67;;;11.73;;
35921;SDS011;22013;48.428;11.974;2022-07-22T06:40:21;15.67;;;10.83;;
35921;SDS011;22013;48.428;11.974;2022-07-22T06:43:05;13.50;;;11.27;;
35921;SDS011;22013;48.428;11.974;2022-07-22T06:46:00;15.03;;;11.47;;
35921;SDS011;22013;48.428;11.974;2022-07-22T06:48:50;13.73;;;10.97;;
35921;SDS011;22013;48.428;11.974;2022-07-22T06:51:29;18.80;;;10.90;;
35921;SDS011;22013;48.428;11.974;2022-07-22T06:54:08;13.63;;;10.73;;
35921;SDS011;22013;48.428;11.974;2022-07-22T06:56:43;15.23;;;10.60;;
35921;SDS011;22013;48.428;11.974;2022-07-22T06:59:24;12.30;;;10.93;;
35921;SDS011;22013;48.428;11.974;2022-07-22T07:02:00;12.70;;;10.17;;
35921;SDS011;22013;48.428;11.974;2022-07-22T07:04:41;11.77;;;9.83;;
35921;SDS011;22013;48.428;11.974;2022-07-22T07:07:17;11.23;;;9.83;;
35921;SDS011;22013;48.428;11.974;2022-07-22T07:10:03;10.90;;;9.10;;
35921;SDS011;22013;48.428;11.974;2022-07-22T07:12:54;12.83;;;10.00;;
35921;SDS011;22013;48.428;11.974;2022-07-22T07:15:45;13.87;;;9.30;;
35921;SDS011;22013;48.428;11.974;2022-07-22T07:18:21;14.60;;;9.43;;
35921;SDS011;22013;48.428;11.974;2022-07-22T07:20:56;10.83;;;8.53;;
35921;SDS011;22013;48.428;11.974;2022-07-22T07:23:32;10.10;;;8.03;;
35921;SDS011;22013;48.428;11.974;2022-07-22T07:26:12;11.13;;;7.40;;
35921;SDS011;22013;48.428;11.974;2022-07-22T07:28:48;10.37;;;8.00;;
35921;SDS011;22013;48.428;11.974;2022-07-22T07:31:37;14.50;;;8.30;;
35921;SDS011;22013;48.428;11.974;2022-07-22T07:34:17;10.47;;;8.30;;
35921;SDS011;22013;48.428;11.974;2022-07-22T07:36:53;11.40;;;7.67;;
35921;SDS011;22013;48.428;11.974;2022-07-22T07:39:29;8.03;;;7.23;;
35921;SDS011;22013;48.428;11.974;2022-07-22T07:42:08;9.20;;;7.60;;
35921;SDS011;22013;48.428;11.974;2022-07-22T07:44:44;7.70;;;6.90;;
35921;SDS011;22013;48.428;11.974;2022-07-22T07:47:19;11.33;;;7.97;;
35921;SDS011;22013;48.428;11.974;2022-07-22T07:49:55;7.70;;;6.90;;
35921;SDS011;22013;48.428;11.974;2022-07-22T07:52:36;8.90;;;7.67;;
35921;SDS011;22013;48.428;11.974;2022-07-22T07:55:21;10.97;;;7.27;;
35921;SDS011;22013;48.428;11.974;2022-07-22T07:58:00;17.37;;;7.87;;
35921;SDS011;22013;48.428;11.974;2022-07-22T08:00:37;7.87;;;6.87;;
35921;SDS011;22013;48.428;11.974;2022-07-22T08:03:14;7.60;;;6.80;;
35921;SDS011;22013;48.428;11.974;2022-07-22T08:05:51;8.80;;;7.47;;
35921;SDS011;22013;48.428;11.974;2022-07-22T08:08:29;8.73;;;6.70;;
35921;SDS011;22013;48.428;11.974;2022-07-22T08:11:15;9.73;;;7.03;;
35921;SDS011;22013;48.428;11.974;2022-07-22T08:14:23;7.50;;;6.70;;
35921;SDS011;22013;48.428;11.974;2022-07-22T08:17:09;7.57;;;6.30;;
35921;SDS011;22013;48.428;11.974;2022-07-22T08:19:45;7.93;;;7.13;;
35921;SDS011;22013;48.428;11.974;2022-07-22T08:22:21;9.40;;;6.20;;
35921;SDS011;22013;48.428;11.974;2022-07-22T08:24:57;6.90;;;6.20;;
35921;SDS011;22013;48.428;11.974;2022-07-22T08:27:32;8.70;;;5.80;;
35921;SDS011;22013;48.428;11.974;2022-07-22T08:30:12;8.53;;;5.40;;
35921;SDS011;22013;48.428;11.974;2022-07-22T08:32:48;7.23;;;5.60;;
35921;SDS011;22013;48.428;11.974;2022-07-22T08:35:24;7.40;;;5.43;;
35921;SDS011;22013;48.428;11.974;2022-07-22T08:38:00;6.10;;;5.47;;
35921;SDS011;22013;48.428;11.974;2022-07-22T08:40:36;8.43;;;5.53;;
35921;SDS011;22013;48.428;11.974;2022-07-22T08:43:12;5.80;;;5.30;;
35921;SDS011;22013;48.428;11.974;2022-07-22T08:45:50;6.90;;;5.30;;
35921;SDS011;22013;48.428;11.974;2022-07-22T08:48:27;6.40;;;5.80;;
35921;SDS011;22013;48.428;11.974;2022-07-22T08:51:24;15.17;;;5.80;;
35921;SDS011;22013;48.428;11.974;2022-07-22T08:54:21;5.90;;;5.30;;
35921;SDS011;22013;48.428;11.974;2022-07-22T08:56:58;5.93;;;5.30;;
35921;SDS011;22013;48.428;11.974;2022-07-22T08:59:47;7.43;;;5.50;;
35921;SDS011;22013;48.428;11.974;2022-07-22T09:02:27;6.00;;;5.40;;
35921;SDS011;22013;48.428;11.974;2022-07-22T09:05:04;9.20;;;5.10;;
35921;SDS011;22013;48.428;11.974;2022-07-22T09:08:00;6.97;;;5.57;;
35921;SDS011;22013;48.428;11.974;2022-07-22T09:10:48;6.37;;;4.77;;
35921;SDS011;22013;48.428;11.974;2022-07-22T09:13:45;6.80;;;5.90;;
35921;SDS011;22013;48.428;11.974;2022-07-22T09:16:38;6.57;;;5.40;;
35921;SDS011;22013;48.428;11.974;2022-07-22T09:19:56;6.27;;;5.67;;
35921;SDS011;22013;48.428;11.974;2022-07-22T09:22:39;9.03;;;6.17;;
35921;SDS011;22013;48.428;11.974;2022-07-22T09:25:20;6.77;;;5.63;;
35921;SDS011;22013;48.428;11.974;2022-07-22T09:28:17;7.03;;;5.60;;
35921;SDS011;22013;48.428;11.974;2022-07-22T09:31:22;6.60;;;5.40;;
35921;SDS011;22013;48.428;11.974;2022-07-22T09:34:25;7.80;;;5.13;;
35921;SDS011;22013;48.428;11.974;2022-07-22T09:37:14;6.93;;;5.40;;
35921;SDS011;22013;48.428;11.974;2022-07-22T09:39:50;6.47;;;5.00;;
35921;SDS011;22013;48.428;11.974;2022-07-22T09:42:26;5.57;;;5.07;;
35921;SDS011;22013;48.428;11.974;2022-07-22T09:45:03;8.03;;;4.97;;
35921;SDS011;22013;48.428;11.974;2022-07-22T09:47:44;14.90;;;5.23;;
35921;SDS011;22013;48.428;11.974;2022-07-22T09:50:33;6.50;;;4.90;;
35921;SDS011;22013;48.428;11.974;2022-07-22T09:53:18;5.73;;;5.07;;
35921;SDS011;22013;48.428;11.974;2022-07-22T09:56:12;5.17;;;4.67;;
35921;SDS011;22013;48.428;11.974;2022-07-22T09:58:48;5.23;;;4.73;;
35921;SDS011;22013;48.428;11.974;2022-07-22T10:01:30;7.47;;;5.10;;
35921;SDS011;22013;48.428;11.974;2022-07-22T10:04:08;5.43;;;5.03;;
35921;SDS011;22013;48.428;11.974;2022-07-22T10:06:46;5.57;;;5.07;;
35921;SDS011;22013;48.428;11.974;2022-07-22T10:09:28;4.40;;;4.00;;
35921;SDS011;22013;48.428;11.974;2022-07-22T10:12:05;9.43;;;5.10;;
35921;SDS011;22013;48.428;11.974;2022-07-22T10:14:41;5.20;;;4.70;;
35921;SDS011;22013;48.428;11.974;2022-07-22T10:17:17;5.63;;;4.33;;
35921;SDS011;22013;48.428;11.974;2022-07-22T10:19:53;5.43;;;4.93;;
35921;SDS011;22013;48.428;11.974;2022-07-22T10:25:47;6.10;;;4.80;;
35921;SDS011;22013;48.428;11.974;2022-07-22T10:28:25;6.53;;;5.17;;
35921;SDS011;22013;48.428;11.974;2022-07-22T10:31:16;5.83;;;5.30;;
35921;SDS011;22013;48.428;11.974;2022-07-22T10:33:54;5.40;;;5.00;;
35921;SDS011;22013;48.428;11.974;2022-07-22T10:36:32;4.83;;;4.33;;
35921;SDS011;22013;48.428;11.974;2022-07-22T10:39:14;7.63;;;5.23;;
35921;SDS011;22013;48.428;11.974;2022-07-22T10:41:52;5.33;;;4.83;;
35921;SDS011;22013;48.428;11.974;2022-07-22T10:50:38;6.33;;;4.77;;
35921;SDS011;22013;48.428;11.974;2022-07-22T10:53:19;5.87;;;5.00;;
35921;SDS011;22013;48.428;11.974;2022-07-22T10:56:00;6.60;;;4.93;;
35921;SDS011;22013;48.428;11.974;2022-07-22T10:58:58;8.30;;;4.73;;
35921;SDS011;22013;48.428;11.974;2022-07-22T11:01:43;5.77;;;5.03;;
35921;SDS011;22013;48.428;11.974;2022-07-22T11:04:21;5.30;;;4.80;;
35921;SDS011;22013;48.428;11.974;2022-07-22T11:06:57;5.37;;;4.87;;
35921;SDS011;22013;48.428;11.974;2022-07-22T11:09:33;5.40;;;4.90;;
35921;SDS011;22013;48.428;11.974;2022-07-22T11:12:11;5.67;;;5.10;;
35921;SDS011;22013;48.428;11.974;2022-07-22T11:14:50;6.40;;;4.70;;
35921;SDS011;22013;48.428;11.974;2022-07-22T11:17:26;5.73;;;5.13;;
35921;SDS011;22013;48.428;11.974;2022-07-22T11:20:07;6.47;;;4.93;;
35921;SDS011;22013;48.428;11.974;2022-07-22T11:22:45;5.33;;;4.83;;
35921;SDS011;22013;48.428;11.974;2022-07-22T11:25:21;5.20;;;4.30;;
35921;SDS011;22013;48.428;11.974;2022-07-22T11:28:01;5.77;;;4.80;;
35921;SDS011;22013;48.428;11.974;2022-07-22T11:30:39;5.20;;;4.70;;
35921;SDS011;22013;48.428;11.974;2022-07-22T11:33:15;5.37;;;4.87;;
35921;SDS011;22013;48.428;11.974;2022-07-22T11:36:00;7.90;;;4.73;;
35921;SDS011;22013;48.428;11.974;2022-07-22T11:38:40;9.53;;;4.60;;
35921;SDS011;22013;48.428;11.974;2022-07-22T11:41:23;5.40;;;4.30;;
35921;SDS011;22013;48.428;11.974;2022-07-22T11:43:59;10.40;;;4.47;;
35921;SDS011;22013;48.428;11.974;2022-07-22T11:46:38;6.27;;;4.50;;
35921;SDS011;22013;48.428;11.974;2022-07-22T11:49:16;7.57;;;4.80;;
35921;SDS011;22013;48.428;11.974;2022-07-22T11:51:52;5.13;;;4.50;;
35921;SDS011;22013;48.428;11.974;2022-07-22T11:54:28;8.60;;;4.28;;
35921;SDS011;22013;48.428;11.974;2022-07-22T11:57:04;5.53;;;5.00;;
35921;SDS011;22013;48.428;11.974;2022-07-22T11:59:40;6.07;;;4.93;;
35921;SDS011;22013;48.428;11.974;2022-07-22T12:02:19;8.03;;;5.40;;
35921;SDS011;22013;48.428;11.974;2022-07-22T12:04:55;6.18;;;4.38;;
35921;SDS011;22013;48.428;11.974;2022-07-22T12:07:35;7.50;;;4.97;;
35921;SDS011;22013;48.428;11.974;2022-07-22T12:10:11;6.03;;;4.80;;
35921;SDS011;22013;48.428;11.974;2022-07-22T12:12:49;5.10;;;4.70;;
35921;SDS011;22013;48.428;11.974;2022-07-22T12:15:26;5.30;;;4.40;;
35921;SDS011;22013;48.428;11.974;2022-07-22T12:18:22;11.02;;;4.43;;
35921;SDS011;22013;48.428;11.974;2022-07-22T12:21:05;6.30;;;4.55;;
35921;SDS011;22013;48.428;11.974;2022-07-22T12:23:40;5.00;;;4.50;;
35921;SDS011;22013;48.428;11.974;2022-07-22T12:29:18;5.38;;;4.80;;
35921;SDS011;22013;48.428;11.974;2022-07-22T12:31:56;5.72;;;4.88;;
35921;SDS011;22013;48.428;11.974;2022-07-22T12:34:37;5.32;;;4.57;;
35921;SDS011;22013;48.428;11.974;2022-07-22T12:37:14;5.40;;;4.90;;
35921;SDS011;22013;48.428;11.974;2022-07-22T12:39:57;5.40;;;4.90;;
35921;SDS011;22013;48.428;11.974;2022-07-22T12:42:38;6.45;;;5.30;;
35921;SDS011;22013;48.428;11.974;2022-07-22T12:45:15;5.88;;;4.97;;
35921;SDS011;22013;48.428;11.974;2022-07-22T12:47:53;5.25;;;4.75;;
35921;SDS011;22013;48.428;11.974;2022-07-22T12:50:33;10.95;;;5.22;;
35921;SDS011;22013;48.428;11.974;2022-07-22T12:53:11;5.65;;;5.05;;
35921;SDS011;22013;48.428;11.974;2022-07-22T12:55:50;5.38;;;4.88;;
35921;SDS011;22013;48.428;11.974;2022-07-22T12:58:27;5.40;;;4.82;;
35921;SDS011;22013;48.428;11.974;2022-07-22T13:01:04;6.15;;;5.03;;
35921;SDS011;22013;48.428;11.974;2022-07-22T13:03:40;7.93;;;5.30;;
35921;SDS011;22013;48.428;11.974;2022-07-22T13:06:18;5.38;;;4.88;;
35921;SDS011;22013;48.428;11.974;2022-07-22T13:08:54;5.43;;;4.93;;
35921;SDS011;22013;48.428;11.974;2022-07-22T13:11:29;7.23;;;5.27;;
35921;SDS011;22013;48.428;11.974;2022-07-22T13:14:10;5.80;;;5.20;;
35921;SDS011;22013;48.428;11.974;2022-07-22T13:16:47;5.60;;;5.10;;
35921;SDS011;22013;48.428;11.974;2022-07-22T13:19:22;5.43;;;4.83;;
35921;SDS011;22013;48.428;11.974;2022-07-22T13:22:00;5.83;;;5.30;;
35921;SDS011;22013;48.428;11.974;2022-07-22T13:24:36;6.63;;;4.87;;
35921;SDS011;22013;48.428;11.974;2022-07-22T13:27:12;8.17;;;5.37;;
35921;SDS011;22013;48.428;11.974;2022-07-22T13:29:47;5.72;;;5.13;;
35921;SDS011;22013;48.428;11.974;2022-07-22T13:32:23;5.63;;;4.95;;
35921;SDS011;22013;48.428;11.974;2022-07-22T13:35:18;5.20;;;4.70;;
35921;SDS011;22013;48.428;11.974;2022-07-22T13:37:57;8.00;;;5.20;;
35921;SDS011;22013;48.428;11.974;2022-07-22T13:40:34;8.65;;;5.20;;
35921;SDS011;22013;48.428;11.974;2022-07-22T13:43:10;5.53;;;5.03;;
35921;SDS011;22013;48.428;11.974;2022-07-22T13:45:46;5.63;;;4.95;;
35921;SDS011;22013;48.428;11.974;2022-07-22T13:48:22;6.05;;;4.57;;
35921;SDS011;22013;48.428;11.974;2022-07-22T13:50:57;7.73;;;4.83;;
35921;SDS011;22013;48.428;11.974;2022-07-22T13:53:35;6.63;;;5.10;;
35921;SDS011;22013;48.428;11.974;2022-07-22T13:56:11;9.30;;;5.10;;
35921;SDS011;22013;48.428;11.974;2022-07-22T13:58:48;6.27;;;4.50;;
35921;SDS011;22013;48.428;11.974;2022-07-22T14:01:24;5.30;;;4.90;;
35921;SDS011;22013;48.428;11.974;2022-07-22T14:04:00;5.63;;;5.10;;
35921;SDS011;22013;48.428;11.974;2022-07-22T14:06:39;6.13;;;5.10;;
35921;SDS011;22013;48.428;11.974;2022-07-22T14:09:17;5.57;;;5.07;;
35921;SDS011;22013;48.428;11.974;2022-07-22T14:12:08;7.17;;;4.97;;
35921;SDS011;22013;48.428;11.974;2022-07-22T14:14:44;6.07;;;5.43;;
35921;SDS011;22013;48.428;11.974;2022-07-22T14:17:20;7.03;;;5.30;;
35921;SDS011;22013;48.428;11.974;2022-07-22T14:19:56;5.50;;;4.87;;
35921;SDS011;22013;48.428;11.974;2022-07-22T14:22:32;5.43;;;4.93;;
35921;SDS011;22013;48.428;11.974;2022-07-22T14:25:11;5.80;;;5.30;;
35921;SDS011;22013;48.428;11.974;2022-07-22T14:27:46;5.60;;;5.00;;
35921;SDS011;22013;48.428;11.974;2022-07-22T14:30:42;5.23;;;4.73;;
35921;SDS011;22013;48.428;11.974;2022-07-22T14:33:17;5.63;;;5.03;;
35921;SDS011;22013;48.428;11.974;2022-07-22T14:35:53;8.33;;;4.63;;
35921;SDS011;22013;48.428;11.974;2022-07-22T14:38:29;6.40;;;5.00;;
35921;SDS011;22013;48.428;11.974;2022-07-22T14:41:07;7.00;;;5.73;;
35921;SDS011;22013;48.428;11.974;2022-07-22T14:43:43;9.10;;;4.87;;
35921;SDS011;22013;48.428;11.974;2022-07-22T14:46:19;4.93;;;4.53;;
35921;SDS011;22013;48.428;11.974;2022-07-22T14:48:55;6.90;;;5.40;;
35921;SDS011;22013;48.428;11.974;2022-07-22T14:51:30;7.33;;;5.23;;
35921;SDS011;22013;48.428;11.974;2022-07-22T14:54:06;4.93;;;4.50;;
35921;SDS011;22013;48.428;11.974;2022-07-22T14:56:45;5.53;;;5.00;;
35921;SDS011;22013;48.428;11.974;2022-07-22T14:59:21;6.23;;;5.10;;
35921;SDS011;22013;48.428;11.974;2022-07-22T15:01:57;8.27;;;5.80;;
35921;SDS011;22013;48.428;11.974;2022-07-22T15:04:33;12.47;;;5.83;;
35921;SDS011;22013;48.428;11.974;2022-07-22T15:07:08;5.40;;;4.80;;
35921;SDS011;22013;48.428;11.974;2022-07-22T15:09:44;6.20;;;5.17;;
35921;SDS011;22013;48.428;11.974;2022-07-22T15:12:22;6.50;;;5.00;;
35921;SDS011;22013;48.428;11.974;2022-07-22T15:15:18;7.93;;;5.50;;
35921;SDS011;22013;48.428;11.974;2022-07-22T15:17:53;6.90;;;5.10;;
35921;SDS011;22013;48.428;11.974;2022-07-22T15:20:29;7.10;;;5.40;;
35921;SDS011;22013;48.428;11.974;2022-07-22T15:23:06;5.03;;;4.30;;
35921;SDS011;22013;48.428;11.974;2022-07-22T15:25:42;5.87;;;5.37;;
35921;SDS011;22013;48.428;11.974;2022-07-22T15:28:20;5.60;;;5.10;;
35921;SDS011;22013;48.428;11.974;2022-07-22T15:31:05;6.87;;;5.10;;
35921;SDS011;22013;48.428;11.974;2022-07-22T15:33:42;5.30;;;4.77;;
35921;SDS011;22013;48.428;11.974;2022-07-22T15:36:21;5.27;;;4.70;;
35921;SDS011;22013;48.428;11.974;2022-07-22T15:38:56;7.30;;;4.93;;
35921;SDS011;22013;48.428;11.974;2022-07-22T15:41:33;5.67;;;4.90;;